sensor_id;sensor_type;location;lat;lon;timestamp;P1;durP1;ratioP1;P2;durP2;ratioP2
4810;SDS011;2419;51.276;6.472;2024-03-22T00:00:36;31.53;;;14.47;;
4810;SDS011;2419;51.276;6.472;2024-03-22T00:03:05;25.80;;;13.10;;
4810;SDS011;2419;51.276;6.472;2024-03-22T00:05:31;26.17;;;13.80;;
4810;SDS011;2419;51.276;6.472;2024-03-22T00:07:58;25.70;;;14.40;;
4810;SDS011;2419;51.276;6.472;2024-03-22T00:10:24;33.20;;;15.87;;
4810;SDS011;2419;51.276;6.472;2024-03-22T00:12:51;31.60;;;15.10;;
4810;SDS011;2419;51.276;6.472;2024-03-22T00:15:17;29.47;;;14.10;;
4810;SDS011;2419;51.276;6.472;2024-03-22T00:17:45;30.47;;;16.97;;
4810;SDS011;2419;51.276;6.472;2024-03-22T00:20:12;31.47;;;13.67;;
4810;SDS011;2419;51.276;6.472;2024-03-22T00:22:39;30.20;;;16.10;;
4810;SDS011;2419;51.276;6.472;2024-03-22T00:25:06;30.20;;;15.73;;
4810;SDS011;2419;51.276;6.472;2024-03-22T00:27:33;31.60;;;15.40;;
4810;SDS011;2419;51.276;6.472;2024-03-22T00:29:59;37.07;;;16.57;;
4810;SDS011;2419;51.276;6.472;2024-03-22T00:32:26;29.27;;;14.60;;
4810;SDS011;2419;51.276;6.472;2024-03-22T00:34:52;27.80;;;13.93;;
4810;SDS011;2419;51.276;6.472;2024-03-22T00:37:21;29.13;;;15.00;;
4810;SDS011;2419;51.276;6.472;2024-03-22T00:39:47;29.87;;;16.30;;
4810;SDS011;2419;51.276;6.472;2024-03-22T00:42:14;31.53;;;16.43;;
4810;SDS011;2419;51.276;6.472;2024-03-22T00:44:40;31.33;;;14.67;;
4810;SDS011;2419;51.276;6.472;2024-03-22T00:47:07;31.63;;;14.73;;
4810;SDS011;2419;51.276;6.472;2024-03-22T00:49:33;30.67;;;14.57;;
4810;SDS011;2419;51.276;6.472;2024-03-22T00:52:01;32.47;;;15.63;;
4810;SDS011;2419;51.276;6.472;2024-03-22T00:54:29;28.47;;;14.80;;
4810;SDS011;2419;51.276;6.472;2024-03-22T00:56:56;32.77;;;15.40;;
4810;SDS011;2419;51.276;6.472;2024-03-22T00:59:22;34.63;;;15.30;;
4810;SDS011;2419;51.276;6.472;2024-03-22T01:01:49;29.10;;;15.13;;
4810;SDS011;2419;51.276;6.472;2024-03-22T01:04:15;33.73;;;15.53;;
4810;SDS011;2419;51.276;6.472;2024-03-22T01:06:42;34.13;;;15.40;;
4810;SDS011;2419;51.276;6.472;2024-03-22T01:09:09;29.10;;;14.07;;
4810;SDS011;2419;51.276;6.472;2024-03-22T01:11:38;27.50;;;14.53;;
4810;SDS011;2419;51.276;6.472;2024-03-22T01:14:05;34.50;;;16.00;;
4810;SDS011;2419;51.276;6.472;2024-03-22T01:16:32;30.10;;;14.23;;
4810;SDS011;2419;51.276;6.472;2024-03-22T01:18:58;29.43;;;15.37;;
4810;SDS011;2419;51.276;6.472;2024-03-22T01:21:25;27.60;;;14.80;;
4810;SDS011;2419;51.276;6.472;2024-03-22T01:23:52;35.03;;;15.60;;
4810;SDS011;2419;51.276;6.472;2024-03-22T01:26:19;38.57;;;16.07;;
4810;SDS011;2419;51.276;6.472;2024-03-22T01:28:47;32.53;;;15.53;;
4810;SDS011;2419;51.276;6.472;2024-03-22T01:31:14;34.83;;;16.27;;
4810;SDS011;2419;51.276;6.472;2024-03-22T01:33:41;33.77;;;16.30;;
4810;SDS011;2419;51.276;6.472;2024-03-22T01:36:08;30.97;;;15.23;;
4810;SDS011;2419;51.276;6.472;2024-03-22T01:38:34;38.83;;;16.03;;
4810;SDS011;2419;51.276;6.472;2024-03-22T01:41:01;34.87;;;15.87;;
4810;SDS011;2419;51.276;6.472;2024-03-22T01:43:28;31.27;;;15.73;;
4810;SDS011;2419;51.276;6.472;2024-03-22T01:45:56;45.40;;;17.63;;
4810;SDS011;2419;51.276;6.472;2024-03-22T01:48:22;43.20;;;18.17;;
4810;SDS011;2419;51.276;6.472;2024-03-22T01:50:50;32.07;;;16.53;;
4810;SDS011;2419;51.276;6.472;2024-03-22T01:53:18;33.03;;;16.23;;
4810;SDS011;2419;51.276;6.472;2024-03-22T01:55:45;33.23;;;15.80;;
4810;SDS011;2419;51.276;6.472;2024-03-22T01:58:12;35.40;;;18.50;;
4810;SDS011;2419;51.276;6.472;2024-03-22T02:00:39;39.10;;;15.67;;
4810;SDS011;2419;51.276;6.472;2024-03-22T02:03:06;34.27;;;17.13;;
4810;SDS011;2419;51.276;6.472;2024-03-22T02:05:34;32.50;;;15.40;;
4810;SDS011;2419;51.276;6.472;2024-03-22T02:08:00;34.93;;;17.73;;
4810;SDS011;2419;51.276;6.472;2024-03-22T02:10:28;34.73;;;16.50;;
4810;SDS011;2419;51.276;6.472;2024-03-22T02:12:54;35.43;;;17.93;;
4810;SDS011;2419;51.276;6.472;2024-03-22T02:15:21;32.57;;;16.40;;
4810;SDS011;2419;51.276;6.472;2024-03-22T02:17:47;35.87;;;17.80;;
4810;SDS011;2419;51.276;6.472;2024-03-22T02:20:16;34.57;;;18.03;;
4810;SDS011;2419;51.276;6.472;2024-03-22T02:22:42;33.57;;;16.83;;
4810;SDS011;2419;51.276;6.472;2024-03-22T02:25:10;32.30;;;17.17;;
4810;SDS011;2419;51.276;6.472;2024-03-22T02:27:37;36.03;;;18.90;;
4810;SDS011;2419;51.276;6.472;2024-03-22T02:30:05;34.80;;;17.07;;
4810;SDS011;2419;51.276;6.472;2024-03-22T02:32:32;41.40;;;18.90;;
4810;SDS011;2419;51.276;6.472;2024-03-22T02:34:59;35.97;;;18.90;;
4810;SDS011;2419;51.276;6.472;2024-03-22T02:37:25;34.93;;;16.93;;
4810;SDS011;2419;51.276;6.472;2024-03-22T02:39:53;39.10;;;18.50;;
4810;SDS011;2419;51.276;6.472;2024-03-22T02:42:21;29.07;;;17.03;;
4810;SDS011;2419;51.276;6.472;2024-03-22T02:44:48;35.27;;;16.43;;
4810;SDS011;2419;51.276;6.472;2024-03-22T02:47:14;32.30;;;16.47;;
4810;SDS011;2419;51.276;6.472;2024-03-22T02:49:41;32.10;;;16.20;;
4810;SDS011;2419;51.276;6.472;2024-03-22T02:52:07;37.53;;;18.10;;
4810;SDS011;2419;51.276;6.472;2024-03-22T02:54:35;33.27;;;18.50;;
4810;SDS011;2419;51.276;6.472;2024-03-22T02:57:01;37.07;;;18.20;;
4810;SDS011;2419;51.276;6.472;2024-03-22T02:59:29;42.20;;;17.20;;
4810;SDS011;2419;51.276;6.472;2024-03-22T03:01:55;36.30;;;18.57;;
4810;SDS011;2419;51.276;6.472;2024-03-22T03:04:22;32.20;;;16.90;;
4810;SDS011;2419;51.276;6.472;2024-03-22T03:06:48;39.63;;;19.67;;
4810;SDS011;2419;51.276;6.472;2024-03-22T03:09:15;34.83;;;16.87;;
4810;SDS011;2419;51.276;6.472;2024-03-22T03:11:42;41.83;;;18.33;;
4810;SDS011;2419;51.276;6.472;2024-03-22T03:14:09;34.03;;;18.53;;
4810;SDS011;2419;51.276;6.472;2024-03-22T03:16:36;35.37;;;17.93;;
4810;SDS011;2419;51.276;6.472;2024-03-22T03:19:03;34.10;;;16.90;;
4810;SDS011;2419;51.276;6.472;2024-03-22T03:21:30;39.17;;;18.30;;
4810;SDS011;2419;51.276;6.472;2024-03-22T03:23:57;34.27;;;18.80;;
4810;SDS011;2419;51.276;6.472;2024-03-22T03:26:24;43.07;;;17.07;;
4810;SDS011;2419;51.276;6.472;2024-03-22T03:28:50;39.37;;;18.00;;
4810;SDS011;2419;51.276;6.472;2024-03-22T03:31:17;34.80;;;18.07;;
4810;SDS011;2419;51.276;6.472;2024-03-22T03:33:44;36.07;;;17.50;;
4810;SDS011;2419;51.276;6.472;2024-03-22T03:36:11;36.03;;;17.17;;
4810;SDS011;2419;51.276;6.472;2024-03-22T03:38:37;38.97;;;17.93;;
4810;SDS011;2419;51.276;6.472;2024-03-22T03:41:04;37.00;;;17.33;;
4810;SDS011;2419;51.276;6.472;2024-03-22T03:43:31;34.10;;;17.10;;
4810;SDS011;2419;51.276;6.472;2024-03-22T03:45:58;33.57;;;16.80;;
4810;SDS011;2419;51.276;6.472;2024-03-22T03:48:24;31.37;;;16.53;;
4810;SDS011;2419;51.276;6.472;2024-03-22T03:50:53;29.70;;;16.30;;
4810;SDS011;2419;51.276;6.472;2024-03-22T03:53:20;26.90;;;15.60;;
4810;SDS011;2419;51.276;6.472;2024-03-22T03:55:47;33.90;;;16.83;;
4810;SDS011;2419;51.276;6.472;2024-03-22T03:58:13;34.93;;;15.50;;
4810;SDS011;2419;51.276;6.472;2024-03-22T04:00:43;31.57;;;16.07;;
4810;SDS011;2419;51.276;6.472;2024-03-22T04:03:09;29.40;;;16.63;;
4810;SDS011;2419;51.276;6.472;2024-03-22T04:05:37;28.63;;;14.60;;
4810;SDS011;2419;51.276;6.472;2024-03-22T04:08:04;28.37;;;16.13;;
4810;SDS011;2419;51.276;6.472;2024-03-22T04:10:32;33.53;;;14.90;;
4810;SDS011;2419;51.276;6.472;2024-03-22T04:12:58;31.07;;;15.50;;
4810;SDS011;2419;51.276;6.472;2024-03-22T04:15:25;26.10;;;15.30;;
4810;SDS011;2419;51.276;6.472;2024-03-22T04:17:51;28.10;;;15.43;;
4810;SDS011;2419;51.276;6.472;2024-03-22T04:20:18;31.37;;;16.57;;
4810;SDS011;2419;51.276;6.472;2024-03-22T04:22:44;28.47;;;15.73;;
4810;SDS011;2419;51.276;6.472;2024-03-22T04:25:15;26.90;;;14.87;;
4810;SDS011;2419;51.276;6.472;2024-03-22T04:27:41;27.20;;;15.20;;
4810;SDS011;2419;51.276;6.472;2024-03-22T04:30:09;37.27;;;16.13;;
4810;SDS011;2419;51.276;6.472;2024-03-22T04:32:36;27.77;;;15.63;;
4810;SDS011;2419;51.276;6.472;2024-03-22T04:35:03;29.50;;;15.10;;
4810;SDS011;2419;51.276;6.472;2024-03-22T04:37:30;30.30;;;16.23;;
4810;SDS011;2419;51.276;6.472;2024-03-22T04:39:57;33.63;;;15.03;;
4810;SDS011;2419;51.276;6.472;2024-03-22T04:42:25;25.40;;;14.23;;
4810;SDS011;2419;51.276;6.472;2024-03-22T04:44:53;29.00;;;16.10;;
4810;SDS011;2419;51.276;6.472;2024-03-22T04:47:19;28.00;;;14.73;;
4810;SDS011;2419;51.276;6.472;2024-03-22T04:49:46;29.03;;;14.20;;
4810;SDS011;2419;51.276;6.472;2024-03-22T04:52:13;25.23;;;13.90;;
4810;SDS011;2419;51.276;6.472;2024-03-22T04:54:40;24.93;;;13.50;;
4810;SDS011;2419;51.276;6.472;2024-03-22T04:57:06;24.30;;;13.90;;
4810;SDS011;2419;51.276;6.472;2024-03-22T04:59:34;31.10;;;15.47;;
4810;SDS011;2419;51.276;6.472;2024-03-22T05:02:00;24.20;;;14.40;;
4810;SDS011;2419;51.276;6.472;2024-03-22T05:04:27;23.90;;;12.77;;
4810;SDS011;2419;51.276;6.472;2024-03-22T05:06:53;28.57;;;14.93;;
4810;SDS011;2419;51.276;6.472;2024-03-22T05:09:21;30.60;;;15.33;;
4810;SDS011;2419;51.276;6.472;2024-03-22T05:11:47;27.40;;;13.53;;
4810;SDS011;2419;51.276;6.472;2024-03-22T05:14:16;25.90;;;13.40;;
4810;SDS011;2419;51.276;6.472;2024-03-22T05:16:45;23.20;;;13.20;;
4810;SDS011;2419;51.276;6.472;2024-03-22T05:19:12;26.73;;;13.13;;
4810;SDS011;2419;51.276;6.472;2024-03-22T05:21:38;25.77;;;13.43;;
4810;SDS011;2419;51.276;6.472;2024-03-22T05:24:05;21.90;;;12.57;;
4810;SDS011;2419;51.276;6.472;2024-03-22T05:26:31;25.57;;;12.67;;
4810;SDS011;2419;51.276;6.472;2024-03-22T05:29:01;25.20;;;13.10;;
4810;SDS011;2419;51.276;6.472;2024-03-22T05:31:28;20.77;;;13.10;;
4810;SDS011;2419;51.276;6.472;2024-03-22T05:33:56;25.20;;;13.67;;
4810;SDS011;2419;51.276;6.472;2024-03-22T05:36:22;23.20;;;13.63;;
4810;SDS011;2419;51.276;6.472;2024-03-22T05:38:49;25.97;;;14.10;;
4810;SDS011;2419;51.276;6.472;2024-03-22T05:41:15;22.83;;;13.30;;
4810;SDS011;2419;51.276;6.472;2024-03-22T05:43:43;25.10;;;13.33;;
4810;SDS011;2419;51.276;6.472;2024-03-22T05:46:09;26.33;;;14.10;;
4810;SDS011;2419;51.276;6.472;2024-03-22T05:48:36;21.83;;;13.43;;
4810;SDS011;2419;51.276;6.472;2024-03-22T05:51:04;28.60;;;13.67;;
4810;SDS011;2419;51.276;6.472;2024-03-22T05:53:31;24.20;;;14.17;;
4810;SDS011;2419;51.276;6.472;2024-03-22T05:55:57;24.07;;;13.47;;
4810;SDS011;2419;51.276;6.472;2024-03-22T05:58:25;25.97;;;13.10;;
4810;SDS011;2419;51.276;6.472;2024-03-22T06:00:51;30.00;;;14.93;;
4810;SDS011;2419;51.276;6.472;2024-03-22T06:03:18;26.10;;;14.13;;
4810;SDS011;2419;51.276;6.472;2024-03-22T06:05:45;25.53;;;14.47;;
4810;SDS011;2419;51.276;6.472;2024-03-22T06:08:14;27.13;;;13.40;;
4810;SDS011;2419;51.276;6.472;2024-03-22T06:10:44;28.30;;;13.13;;
4810;SDS011;2419;51.276;6.472;2024-03-22T06:13:11;27.30;;;13.40;;
4810;SDS011;2419;51.276;6.472;2024-03-22T06:15:37;24.27;;;13.93;;
4810;SDS011;2419;51.276;6.472;2024-03-22T06:18:04;24.10;;;13.33;;
4810;SDS011;2419;51.276;6.472;2024-03-22T06:20:31;24.70;;;13.20;;
4810;SDS011;2419;51.276;6.472;2024-03-22T06:22:58;23.03;;;13.40;;
4810;SDS011;2419;51.276;6.472;2024-03-22T06:25:25;27.77;;;12.70;;
4810;SDS011;2419;51.276;6.472;2024-03-22T06:27:53;28.13;;;14.57;;
4810;SDS011;2419;51.276;6.472;2024-03-22T06:30:20;21.63;;;12.30;;
4810;SDS011;2419;51.276;6.472;2024-03-22T06:32:46;24.30;;;13.10;;
4810;SDS011;2419;51.276;6.472;2024-03-22T06:35:13;29.47;;;12.97;;
4810;SDS011;2419;51.276;6.472;2024-03-22T06:37:39;24.77;;;13.60;;
4810;SDS011;2419;51.276;6.472;2024-03-22T06:40:07;20.23;;;12.67;;
4810;SDS011;2419;51.276;6.472;2024-03-22T06:42:35;21.47;;;12.30;;
4810;SDS011;2419;51.276;6.472;2024-03-22T06:45:02;24.80;;;13.37;;
4810;SDS011;2419;51.276;6.472;2024-03-22T06:47:29;25.67;;;13.00;;
4810;SDS011;2419;51.276;6.472;2024-03-22T06:49:56;22.23;;;12.17;;
4810;SDS011;2419;51.276;6.472;2024-03-22T06:52:23;20.50;;;11.57;;
4810;SDS011;2419;51.276;6.472;2024-03-22T06:54:50;22.43;;;12.37;;
4810;SDS011;2419;51.276;6.472;2024-03-22T06:57:17;23.00;;;13.30;;
4810;SDS011;2419;51.276;6.472;2024-03-22T06:59:46;18.50;;;11.73;;
4810;SDS011;2419;51.276;6.472;2024-03-22T07:02:12;23.83;;;12.93;;
4810;SDS011;2419;51.276;6.472;2024-03-22T07:04:39;18.77;;;12.10;;
4810;SDS011;2419;51.276;6.472;2024-03-22T07:07:06;25.43;;;12.10;;
4810;SDS011;2419;51.276;6.472;2024-03-22T07:09:33;17.87;;;12.30;;
4810;SDS011;2419;51.276;6.472;2024-03-22T07:12:00;22.90;;;12.53;;
4810;SDS011;2419;51.276;6.472;2024-03-22T07:14:27;26.20;;;13.30;;
4810;SDS011;2419;51.276;6.472;2024-03-22T07:16:54;22.43;;;12.13;;
4810;SDS011;2419;51.276;6.472;2024-03-22T07:19:21;20.87;;;12.23;;
4810;SDS011;2419;51.276;6.472;2024-03-22T07:21:48;21.60;;;12.40;;
4810;SDS011;2419;51.276;6.472;2024-03-22T07:24:15;22.67;;;12.67;;
4810;SDS011;2419;51.276;6.472;2024-03-22T07:26:41;21.47;;;12.10;;
4810;SDS011;2419;51.276;6.472;2024-03-22T07:29:08;25.43;;;12.03;;
4810;SDS011;2419;51.276;6.472;2024-03-22T07:31:34;23.17;;;13.20;;
4810;SDS011;2419;51.276;6.472;2024-03-22T07:34:02;21.23;;;13.53;;
4810;SDS011;2419;51.276;6.472;2024-03-22T07:36:30;23.20;;;12.50;;
4810;SDS011;2419;51.276;6.472;2024-03-22T07:38:57;29.47;;;13.03;;
4810;SDS011;2419;51.276;6.472;2024-03-22T07:41:23;25.63;;;13.37;;
4810;SDS011;2419;51.276;6.472;2024-03-22T07:43:50;21.07;;;12.77;;
4810;SDS011;2419;51.276;6.472;2024-03-22T07:46:16;26.47;;;12.70;;
4810;SDS011;2419;51.276;6.472;2024-03-22T07:48:44;22.87;;;13.43;;
4810;SDS011;2419;51.276;6.472;2024-03-22T07:51:11;23.13;;;12.70;;
4810;SDS011;2419;51.276;6.472;2024-03-22T07:53:38;24.57;;;12.60;;
4810;SDS011;2419;51.276;6.472;2024-03-22T07:56:04;23.47;;;11.73;;
4810;SDS011;2419;51.276;6.472;2024-03-22T07:58:32;24.77;;;12.60;;
4810;SDS011;2419;51.276;6.472;2024-03-22T08:00:58;24.40;;;12.73;;
4810;SDS011;2419;51.276;6.472;2024-03-22T08:03:25;19.83;;;12.67;;
4810;SDS011;2419;51.276;6.472;2024-03-22T08:05:51;25.43;;;12.83;;
4810;SDS011;2419;51.276;6.472;2024-03-22T08:08:19;24.13;;;12.60;;
4810;SDS011;2419;51.276;6.472;2024-03-22T08:10:46;26.93;;;12.57;;
4810;SDS011;2419;51.276;6.472;2024-03-22T08:13:13;23.30;;;12.67;;
4810;SDS011;2419;51.276;6.472;2024-03-22T08:15:40;21.97;;;12.90;;
4810;SDS011;2419;51.276;6.472;2024-03-22T08:18:09;23.00;;;12.50;;
4810;SDS011;2419;51.276;6.472;2024-03-22T08:20:35;23.17;;;12.00;;
4810;SDS011;2419;51.276;6.472;2024-03-22T08:23:04;22.27;;;12.37;;
4810;SDS011;2419;51.276;6.472;2024-03-22T08:25:31;19.23;;;11.50;;
4810;SDS011;2419;51.276;6.472;2024-03-22T08:27:58;20.80;;;11.47;;
4810;SDS011;2419;51.276;6.472;2024-03-22T08:30:25;20.80;;;12.37;;
4810;SDS011;2419;51.276;6.472;2024-03-22T08:32:52;23.73;;;12.63;;
4810;SDS011;2419;51.276;6.472;2024-03-22T08:35:18;19.07;;;11.73;;
4810;SDS011;2419;51.276;6.472;2024-03-22T08:37:45;19.60;;;10.70;;
4810;SDS011;2419;51.276;6.472;2024-03-22T08:40:12;22.83;;;12.90;;
4810;SDS011;2419;51.276;6.472;2024-03-22T08:42:41;19.37;;;10.83;;
4810;SDS011;2419;51.276;6.472;2024-03-22T08:45:08;20.10;;;10.43;;
4810;SDS011;2419;51.276;6.472;2024-03-22T08:47:35;18.30;;;11.13;;
4810;SDS011;2419;51.276;6.472;2024-03-22T08:50:01;18.13;;;10.97;;
4810;SDS011;2419;51.276;6.472;2024-03-22T08:52:29;24.03;;;11.33;;
4810;SDS011;2419;51.276;6.472;2024-03-22T08:54:57;17.57;;;9.90;;
4810;SDS011;2419;51.276;6.472;2024-03-22T08:57:24;15.07;;;10.03;;
4810;SDS011;2419;51.276;6.472;2024-03-22T08:59:51;19.70;;;10.83;;
4810;SDS011;2419;51.276;6.472;2024-03-22T09:02:18;20.63;;;11.07;;
4810;SDS011;2419;51.276;6.472;2024-03-22T09:04:45;16.77;;;10.60;;
4810;SDS011;2419;51.276;6.472;2024-03-22T09:07:12;19.63;;;10.73;;
4810;SDS011;2419;51.276;6.472;2024-03-22T09:09:38;16.53;;;10.07;;
4810;SDS011;2419;51.276;6.472;2024-03-22T09:12:06;19.93;;;10.47;;
4810;SDS011;2419;51.276;6.472;2024-03-22T09:14:33;20.60;;;10.03;;
4810;SDS011;2419;51.276;6.472;2024-03-22T09:17:01;13.70;;;9.00;;
4810;SDS011;2419;51.276;6.472;2024-03-22T09:19:28;11.80;;;7.70;;
4810;SDS011;2419;51.276;6.472;2024-03-22T09:21:55;17.93;;;8.13;;
4810;SDS011;2419;51.276;6.472;2024-03-22T09:24:21;13.43;;;8.20;;
4810;SDS011;2419;51.276;6.472;2024-03-22T09:26:48;15.67;;;8.70;;
4810;SDS011;2419;51.276;6.472;2024-03-22T09:29:15;15.23;;;8.13;;
4810;SDS011;2419;51.276;6.472;2024-03-22T09:31:42;14.40;;;7.37;;
4810;SDS011;2419;51.276;6.472;2024-03-22T09:34:11;13.50;;;7.97;;
4810;SDS011;2419;51.276;6.472;2024-03-22T09:36:38;9.33;;;6.70;;
4810;SDS011;2419;51.276;6.472;2024-03-22T09:39:04;11.50;;;6.07;;
4810;SDS011;2419;51.276;6.472;2024-03-22T09:41:33;12.83;;;6.40;;
4810;SDS011;2419;51.276;6.472;2024-03-22T09:44:07;12.67;;;6.80;;
4810;SDS011;2419;51.276;6.472;2024-03-22T09:46:40;10.90;;;6.07;;
4810;SDS011;2419;51.276;6.472;2024-03-22T09:49:09;8.20;;;5.27;;
4810;SDS011;2419;51.276;6.472;2024-03-22T09:51:37;9.13;;;6.00;;
4810;SDS011;2419;51.276;6.472;2024-03-22T09:54:04;14.17;;;6.20;;
4810;SDS011;2419;51.276;6.472;2024-03-22T09:56:31;11.97;;;6.47;;
4810;SDS011;2419;51.276;6.472;2024-03-22T09:58:58;8.83;;;5.20;;
4810;SDS011;2419;51.276;6.472;2024-03-22T10:01:25;8.43;;;5.33;;
4810;SDS011;2419;51.276;6.472;2024-03-22T10:03:51;11.87;;;6.57;;
4810;SDS011;2419;51.276;6.472;2024-03-22T10:06:20;9.50;;;6.00;;
4810;SDS011;2419;51.276;6.472;2024-03-22T10:08:47;13.97;;;6.23;;
4810;SDS011;2419;51.276;6.472;2024-03-22T10:11:14;10.87;;;5.77;;
4810;SDS011;2419;51.276;6.472;2024-03-22T10:13:40;10.40;;;6.60;;
4810;SDS011;2419;51.276;6.472;2024-03-22T10:16:08;13.60;;;7.00;;
4810;SDS011;2419;51.276;6.472;2024-03-22T10:18:34;9.63;;;6.27;;
4810;SDS011;2419;51.276;6.472;2024-03-22T10:21:01;9.23;;;6.27;;
4810;SDS011;2419;51.276;6.472;2024-03-22T10:23:29;12.90;;;6.90;;
4810;SDS011;2419;51.276;6.472;2024-03-22T10:25:56;13.47;;;6.50;;
4810;SDS011;2419;51.276;6.472;2024-03-22T10:28:23;9.50;;;6.27;;
4810;SDS011;2419;51.276;6.472;2024-03-22T10:30:51;13.00;;;6.20;;
4810;SDS011;2419;51.276;6.472;2024-03-22T10:33:18;11.73;;;6.40;;
4810;SDS011;2419;51.276;6.472;2024-03-22T10:35:49;12.03;;;6.63;;
4810;SDS011;2419;51.276;6.472;2024-03-22T10:38:17;9.23;;;5.93;;
4810;SDS011;2419;51.276;6.472;2024-03-22T10:40:47;12.07;;;7.00;;
4810;SDS011;2419;51.276;6.472;2024-03-22T10:43:14;15.73;;;8.40;;
4810;SDS011;2419;51.276;6.472;2024-03-22T10:45:41;15.50;;;6.77;;
4810;SDS011;2419;51.276;6.472;2024-03-22T10:48:08;17.20;;;7.23;;
4810;SDS011;2419;51.276;6.472;2024-03-22T10:50:38;14.17;;;7.67;;
4810;SDS011;2419;51.276;6.472;2024-03-22T10:53:06;15.80;;;7.80;;
4810;SDS011;2419;51.276;6.472;2024-03-22T10:55:36;12.00;;;7.17;;
4810;SDS011;2419;51.276;6.472;2024-03-22T10:58:05;15.13;;;8.20;;
4810;SDS011;2419;51.276;6.472;2024-03-22T11:00:33;13.10;;;8.13;;
4810;SDS011;2419;51.276;6.472;2024-03-22T11:03:01;17.07;;;6.60;;
4810;SDS011;2419;51.276;6.472;2024-03-22T11:05:29;14.70;;;7.67;;
4810;SDS011;2419;51.276;6.472;2024-03-22T11:07:58;12.20;;;7.33;;
4810;SDS011;2419;51.276;6.472;2024-03-22T11:10:28;18.10;;;7.63;;
4810;SDS011;2419;51.276;6.472;2024-03-22T11:12:55;15.20;;;7.30;;
4810;SDS011;2419;51.276;6.472;2024-03-22T11:15:29;12.07;;;7.17;;
4810;SDS011;2419;51.276;6.472;2024-03-22T11:17:55;16.00;;;7.87;;
4810;SDS011;2419;51.276;6.472;2024-03-22T11:20:23;11.33;;;7.47;;
4810;SDS011;2419;51.276;6.472;2024-03-22T11:22:50;16.20;;;7.10;;
4810;SDS011;2419;51.276;6.472;2024-03-22T11:25:18;16.53;;;7.97;;
4810;SDS011;2419;51.276;6.472;2024-03-22T11:27:44;14.33;;;7.80;;
4810;SDS011;2419;51.276;6.472;2024-03-22T11:30:12;16.13;;;8.10;;
4810;SDS011;2419;51.276;6.472;2024-03-22T11:32:40;12.10;;;6.77;;
4810;SDS011;2419;51.276;6.472;2024-03-22T11:35:10;10.33;;;6.80;;
4810;SDS011;2419;51.276;6.472;2024-03-22T11:37:38;11.40;;;6.60;;
4810;SDS011;2419;51.276;6.472;2024-03-22T11:40:05;12.00;;;6.80;;
4810;SDS011;2419;51.276;6.472;2024-03-22T11:42:35;9.80;;;6.87;;
4810;SDS011;2419;51.276;6.472;2024-03-22T11:45:04;10.80;;;6.43;;
4810;SDS011;2419;51.276;6.472;2024-03-22T11:47:32;12.13;;;7.20;;
4810;SDS011;2419;51.276;6.472;2024-03-22T11:50:01;14.40;;;6.07;;
4810;SDS011;2419;51.276;6.472;2024-03-22T11:52:27;11.47;;;6.80;;
4810;SDS011;2419;51.276;6.472;2024-03-22T11:54:55;8.80;;;6.27;;
4810;SDS011;2419;51.276;6.472;2024-03-22T11:57:22;9.73;;;6.17;;
4810;SDS011;2419;51.276;6.472;2024-03-22T11:59:50;13.50;;;6.63;;
4810;SDS011;2419;51.276;6.472;2024-03-22T12:02:17;12.23;;;6.27;;
4810;SDS011;2419;51.276;6.472;2024-03-22T12:04:45;9.27;;;5.93;;
4810;SDS011;2419;51.276;6.472;2024-03-22T12:07:14;11.67;;;7.03;;
4810;SDS011;2419;51.276;6.472;2024-03-22T12:09:42;17.87;;;8.03;;
4810;SDS011;2419;51.276;6.472;2024-03-22T12:12:09;14.27;;;7.70;;
4810;SDS011;2419;51.276;6.472;2024-03-22T12:14:37;13.20;;;6.97;;
4810;SDS011;2419;51.276;6.472;2024-03-22T12:17:04;13.63;;;6.83;;
4810;SDS011;2419;51.276;6.472;2024-03-22T12:19:31;10.50;;;7.20;;
4810;SDS011;2419;51.276;6.472;2024-03-22T12:21:58;10.50;;;7.00;;
4810;SDS011;2419;51.276;6.472;2024-03-22T12:24:26;11.33;;;6.90;;
4810;SDS011;2419;51.276;6.472;2024-03-22T12:26:53;11.80;;;6.53;;
4810;SDS011;2419;51.276;6.472;2024-03-22T12:29:20;12.10;;;7.77;;
4810;SDS011;2419;51.276;6.472;2024-03-22T12:31:46;13.97;;;8.50;;
4810;SDS011;2419;51.276;6.472;2024-03-22T12:34:14;14.03;;;7.13;;
4810;SDS011;2419;51.276;6.472;2024-03-22T12:36:40;12.33;;;7.70;;
4810;SDS011;2419;51.276;6.472;2024-03-22T12:39:07;13.07;;;8.27;;
4810;SDS011;2419;51.276;6.472;2024-03-22T12:41:35;13.33;;;7.77;;
4810;SDS011;2419;51.276;6.472;2024-03-22T12:44:02;30.80;;;12.03;;
4810;SDS011;2419;51.276;6.472;2024-03-22T12:46:29;21.07;;;10.03;;
4810;SDS011;2419;51.276;6.472;2024-03-22T12:48:56;21.03;;;8.73;;
4810;SDS011;2419;51.276;6.472;2024-03-22T12:51:22;20.33;;;9.13;;
4810;SDS011;2419;51.276;6.472;2024-03-22T12:53:49;14.93;;;8.90;;
4810;SDS011;2419;51.276;6.472;2024-03-22T12:56:15;17.80;;;7.90;;
4810;SDS011;2419;51.276;6.472;2024-03-22T12:58:43;15.33;;;8.43;;
4810;SDS011;2419;51.276;6.472;2024-03-22T13:01:10;17.80;;;9.10;;
4810;SDS011;2419;51.276;6.472;2024-03-22T13:03:37;17.73;;;8.67;;
4810;SDS011;2419;51.276;6.472;2024-03-22T13:06:03;14.17;;;8.70;;
4810;SDS011;2419;51.276;6.472;2024-03-22T13:08:31;14.83;;;8.67;;
4810;SDS011;2419;51.276;6.472;2024-03-22T13:10:57;15.17;;;9.10;;
4810;SDS011;2419;51.276;6.472;2024-03-22T13:13:24;16.57;;;8.60;;
4810;SDS011;2419;51.276;6.472;2024-03-22T13:15:52;20.00;;;8.80;;
4810;SDS011;2419;51.276;6.472;2024-03-22T13:18:19;16.27;;;9.80;;
4810;SDS011;2419;51.276;6.472;2024-03-22T13:20:46;18.10;;;9.00;;
4810;SDS011;2419;51.276;6.472;2024-03-22T13:23:13;16.30;;;8.77;;
4810;SDS011;2419;51.276;6.472;2024-03-22T13:25:40;13.73;;;9.37;;
4810;SDS011;2419;51.276;6.472;2024-03-22T13:28:07;12.70;;;8.90;;
4810;SDS011;2419;51.276;6.472;2024-03-22T13:30:33;16.13;;;8.80;;
4810;SDS011;2419;51.276;6.472;2024-03-22T13:33:02;13.10;;;8.90;;
4810;SDS011;2419;51.276;6.472;2024-03-22T13:35:28;17.60;;;8.33;;
4810;SDS011;2419;51.276;6.472;2024-03-22T13:37:55;13.53;;;8.10;;
4810;SDS011;2419;51.276;6.472;2024-03-22T13:40:22;13.67;;;8.03;;
4810;SDS011;2419;51.276;6.472;2024-03-22T13:42:52;13.07;;;8.53;;
4810;SDS011;2419;51.276;6.472;2024-03-22T13:45:18;17.87;;;9.03;;
4810;SDS011;2419;51.276;6.472;2024-03-22T13:47:45;13.27;;;8.03;;
4810;SDS011;2419;51.276;6.472;2024-03-22T13:50:13;13.67;;;8.47;;
4810;SDS011;2419;51.276;6.472;2024-03-22T13:52:40;11.57;;;8.73;;
4810;SDS011;2419;51.276;6.472;2024-03-22T13:55:06;11.67;;;8.00;;
4810;SDS011;2419;51.276;6.472;2024-03-22T13:57:34;10.60;;;7.80;;
4810;SDS011;2419;51.276;6.472;2024-03-22T14:00:00;11.57;;;8.03;;
4810;SDS011;2419;51.276;6.472;2024-03-22T14:02:38;15.50;;;9.20;;
4810;SDS011;2419;51.276;6.472;2024-03-22T14:05:04;13.67;;;9.07;;
4810;SDS011;2419;51.276;6.472;2024-03-22T14:07:32;11.17;;;8.67;;
4810;SDS011;2419;51.276;6.472;2024-03-22T14:09:59;17.17;;;10.17;;
4810;SDS011;2419;51.276;6.472;2024-03-22T14:12:26;16.10;;;8.77;;
4810;SDS011;2419;51.276;6.472;2024-03-22T14:14:52;13.93;;;10.47;;
4810;SDS011;2419;51.276;6.472;2024-03-22T14:17:19;15.77;;;10.50;;
4810;SDS011;2419;51.276;6.472;2024-03-22T14:19:45;15.87;;;9.93;;
4810;SDS011;2419;51.276;6.472;2024-03-22T14:22:13;18.40;;;11.07;;
4810;SDS011;2419;51.276;6.472;2024-03-22T14:24:40;19.53;;;9.80;;
4810;SDS011;2419;51.276;6.472;2024-03-22T14:27:07;21.70;;;10.57;;
4810;SDS011;2419;51.276;6.472;2024-03-22T14:29:33;13.70;;;10.00;;
4810;SDS011;2419;51.276;6.472;2024-03-22T14:32:00;20.30;;;11.67;;
4810;SDS011;2419;51.276;6.472;2024-03-22T14:34:27;18.23;;;9.60;;
4810;SDS011;2419;51.276;6.472;2024-03-22T14:36:54;19.23;;;11.17;;
4810;SDS011;2419;51.276;6.472;2024-03-22T14:39:20;18.37;;;11.60;;
4810;SDS011;2419;51.276;6.472;2024-03-22T14:41:48;18.40;;;10.47;;
4810;SDS011;2419;51.276;6.472;2024-03-22T14:44:14;15.57;;;9.90;;
4810;SDS011;2419;51.276;6.472;2024-03-22T14:46:41;19.00;;;11.60;;
4810;SDS011;2419;51.276;6.472;2024-03-22T14:49:08;15.03;;;10.27;;
4810;SDS011;2419;51.276;6.472;2024-03-22T14:51:35;23.43;;;11.00;;